createdAt,value
2023-03-17T00:00:41.395Z,22.30
2023-03-17T00:01:51.208Z,21.95
2023-03-17T00:02:53.557Z,86.43
2023-03-17T00:03:58.979Z,28.88
2023-03-17T00:05:01.045Z,26.85
2023-03-17T00:06:07.224Z,28.38
2023-03-17T00:07:15.073Z,27.25
2023-03-17T00:08:24.759Z,27.35
2023-03-17T00:09:29.447Z,73.43
2023-03-17T00:10:34.188Z,42.42
2023-03-17T00:11:36.225Z,68.43
2023-03-17T00:12:41.383Z,90.10
2023-03-17T00:13:43.856Z,33.40
2023-03-17T00:14:48.711Z,65.00
2023-03-17T00:15:57.174Z,36.40
2023-03-17T00:16:59.400Z,42.30
2023-03-17T00:18:04.187Z,46.75
2023-03-17T00:19:06.343Z,43.95
2023-03-17T00:20:17.618Z,36.33
2023-03-17T00:21:26.207Z,35.20
2023-03-17T00:22:30.957Z,46.58
2023-03-17T00:23:33.120Z,83.90
2023-03-17T00:24:40.362Z,77.63
2023-03-17T00:25:43.413Z,40.80
2023-03-17T00:26:48.406Z,31.83
2023-03-17T00:27:51.170Z,34.83
2023-03-17T00:28:57.097Z,32.90
2023-03-17T00:29:59.635Z,34.63
2023-03-17T00:31:05.247Z,23.10
2023-03-17T00:32:16.790Z,35.90
2023-03-17T00:33:28.508Z,45.88
2023-03-17T00:35:36.567Z,82.82
2023-03-17T00:36:41.359Z,100.05
2023-03-17T00:37:44.066Z,63.05
2023-03-17T00:38:49.862Z,44.75
2023-03-17T00:39:54.956Z,71.00
2023-03-17T00:40:59.597Z,56.92
2023-03-17T00:42:01.652Z,55.63
2023-03-17T00:43:08.384Z,72.75
2023-03-17T00:44:10.416Z,62.97
2023-03-17T00:45:15.901Z,66.15
2023-03-17T00:46:24.483Z,211.02
2023-03-17T00:47:29.192Z,95.90
2023-03-17T00:48:31.278Z,98.53
2023-03-17T00:49:35.972Z,133.05
2023-03-17T00:50:38.622Z,102.43
2023-03-17T00:51:43.881Z,71.18
2023-03-17T00:52:46.443Z,121.10
2023-03-17T00:53:51.105Z,42.78
2023-03-17T00:54:55.752Z,54.15
2023-03-17T00:56:00.607Z,79.18
2023-03-17T00:57:02.827Z,50.10
2023-03-17T00:58:16.416Z,61.53
2023-03-17T00:59:26.449Z,79.32
2023-03-17T01:00:32.886Z,55.40
2023-03-17T01:01:35.244Z,65.53
2023-03-17T01:02:39.916Z,73.55
2023-03-17T01:03:42.029Z,32.65
2023-03-17T01:04:52.859Z,27.67
2023-03-17T01:06:03.236Z,57.85
2023-03-17T01:07:11.263Z,43.63
2023-03-17T01:08:16.934Z,125.47
2023-03-17T01:09:20.538Z,60.42
2023-03-17T01:10:30.052Z,64.97
2023-03-17T01:11:32.411Z,89.78
2023-03-17T01:12:37.131Z,111.05
2023-03-17T01:13:40.562Z,106.97
2023-03-17T01:14:45.347Z,83.22
2023-03-17T01:15:49.079Z,69.80
2023-03-17T01:16:55.395Z,76.60
2023-03-17T01:17:58.668Z,72.70
2023-03-17T01:19:03.292Z,100.10
2023-03-17T01:20:06.758Z,136.85
2023-03-17T01:21:11.418Z,64.85
2023-03-17T01:22:14.309Z,87.28
2023-03-17T01:23:19.274Z,50.40
2023-03-17T01:24:21.389Z,45.42
2023-03-17T01:25:29.264Z,102.82
2023-03-17T01:26:32.121Z,88.50
2023-03-17T01:27:37.905Z,80.38
2023-03-17T01:28:40.012Z,101.15
2023-03-17T01:29:44.981Z,81.43
2023-03-17T01:30:47.569Z,45.17
2023-03-17T01:31:53.100Z,43.03
2023-03-17T01:32:56.369Z,46.17
2023-03-17T01:34:01.219Z,51.33
2023-03-17T01:35:04.799Z,42.67
2023-03-17T01:36:10.466Z,61.70
2023-03-17T01:37:13.594Z,38.35
2023-03-17T01:38:18.333Z,35.53
2023-03-17T01:39:20.563Z,54.85
2023-03-17T01:40:30.729Z,41.33
2023-03-17T01:41:34.658Z,70.78
2023-03-17T01:42:39.712Z,58.35
2023-03-17T01:43:41.839Z,67.03
2023-03-17T01:45:00.777Z,29.73
2023-03-17T01:46:21.112Z,46.17
2023-03-17T01:47:28.697Z,58.55
2023-03-17T01:48:35.150Z,108.35
2023-03-17T01:49:42.364Z,74.35
2023-03-17T01:50:46.950Z,57.05
2023-03-17T01:52:05.172Z,56.83
2023-03-17T01:53:07.669Z,26.85
2023-03-17T01:54:14.670Z,28.63
2023-03-17T01:55:19.017Z,35.13
2023-03-17T01:56:26.560Z,35.45
2023-03-17T01:57:37.256Z,58.42
2023-03-17T01:58:39.734Z,79.18
2023-03-17T01:59:49.594Z,156.38
2023-03-17T02:00:52.053Z,50.67
2023-03-17T02:02:03.053Z,46.20
2023-03-17T02:03:06.218Z,50.75
2023-03-17T02:04:11.639Z,42.80
2023-03-17T02:05:17.080Z,50.67
2023-03-17T02:06:22.301Z,52.25
2023-03-17T02:07:26.713Z,60.13
2023-03-17T02:08:31.437Z,64.53
2023-03-17T02:09:34.564Z,87.35
2023-03-17T02:10:39.207Z,130.85
2023-03-17T02:11:44.889Z,73.28
2023-03-17T02:12:53.838Z,50.72
2023-03-17T02:13:55.838Z,48.85
2023-03-17T02:15:01.049Z,58.58
2023-03-17T02:16:04.383Z,55.15
2023-03-17T02:17:10.050Z,51.05
2023-03-17T02:18:13.759Z,32.80
2023-03-17T02:19:18.494Z,27.95
2023-03-17T02:20:50.940Z,30.08
2023-03-17T02:21:59.723Z,76.45
2023-03-17T02:23:02.547Z,53.63
2023-03-17T02:24:12.267Z,47.20
2023-03-17T02:25:14.812Z,92.53
2023-03-17T02:26:21.344Z,50.35
2023-03-17T02:27:33.935Z,48.17
2023-03-17T02:28:36.058Z,80.90
2023-03-17T02:29:40.720Z,76.78
2023-03-17T02:30:43.515Z,88.38
2023-03-17T02:31:48.349Z,80.45
2023-03-17T02:32:50.792Z,35.28
2023-03-17T02:33:55.740Z,47.35
2023-03-17T02:34:58.173Z,47.13
2023-03-17T02:36:03.316Z,39.22
2023-03-17T02:37:08.548Z,31.40
2023-03-17T02:38:13.728Z,30.02
2023-03-17T02:39:15.876Z,29.45
2023-03-17T02:40:20.666Z,34.28
2023-03-17T02:41:23.483Z,41.63
2023-03-17T02:42:28.160Z,33.95
2023-03-17T02:43:30.258Z,113.65
2023-03-17T02:44:35.030Z,46.50
2023-03-17T02:45:36.982Z,72.40
2023-03-17T02:46:41.622Z,95.45
2023-03-17T02:47:43.755Z,157.90
2023-03-17T02:48:48.911Z,76.65
2023-03-17T02:49:51.306Z,38.15
2023-03-17T02:50:56.047Z,26.35
2023-03-17T02:51:58.270Z,27.98
2023-03-17T02:53:05.506Z,42.05
2023-03-17T02:54:10.529Z,25.75
2023-03-17T02:55:12.576Z,40.67
2023-03-17T02:56:17.230Z,45.72
2023-03-17T02:57:19.321Z,21.73
2023-03-17T02:58:23.927Z,17.00
2023-03-17T02:59:28.782Z,38.97
2023-03-17T03:00:31.265Z,39.33
2023-03-17T03:01:36.407Z,69.85
2023-03-17T03:02:39.322Z,58.42
2023-03-17T03:03:43.958Z,70.25
2023-03-17T03:04:46.428Z,82.22
2023-03-17T03:05:51.326Z,29.05
2023-03-17T03:06:53.809Z,28.73
2023-03-17T03:07:58.476Z,91.07
2023-03-17T03:09:03.909Z,32.78
2023-03-17T03:10:10.020Z,46.17
2023-03-17T03:11:12.218Z,49.17
2023-03-17T03:12:17.040Z,30.75
2023-03-17T03:13:19.181Z,39.20
2023-03-17T03:14:24.109Z,78.95
2023-03-17T03:15:26.265Z,64.55
2023-03-17T03:16:30.990Z,58.05
2023-03-17T03:17:33.159Z,63.03
2023-03-17T03:18:38.238Z,124.20
2023-03-17T03:19:40.844Z,79.32
2023-03-17T03:20:46.295Z,93.72
2023-03-17T03:21:48.363Z,75.35
2023-03-17T03:22:52.949Z,36.50
2023-03-17T03:23:55.001Z,46.92
2023-03-17T03:25:02.436Z,63.88
2023-03-17T03:26:04.813Z,53.03
2023-03-17T03:27:09.409Z,45.72
2023-03-17T03:28:11.730Z,53.03
2023-03-17T03:29:16.936Z,72.40
2023-03-17T03:30:19.392Z,46.42
2023-03-17T03:31:24.034Z,52.90
2023-03-17T03:32:26.544Z,114.70
2023-03-17T03:33:31.396Z,56.58
2023-03-17T03:34:33.368Z,151.30
2023-03-17T03:35:38.125Z,88.55
2023-03-17T03:36:40.239Z,89.72
2023-03-17T03:37:44.931Z,91.07
2023-03-17T03:38:46.928Z,101.15
2023-03-17T03:39:52.306Z,84.05
2023-03-17T03:40:56.956Z,62.08
2023-03-17T03:42:01.615Z,73.55
2023-03-17T03:43:16.238Z,45.60
2023-03-17T03:44:27.248Z,34.33
2023-03-17T03:45:29.609Z,33.60
2023-03-17T03:46:34.325Z,41.28
2023-03-17T03:47:36.398Z,72.20
2023-03-17T03:48:41.067Z,73.70
2023-03-17T03:49:43.157Z,68.32
2023-03-17T03:50:47.772Z,73.13
2023-03-17T03:51:49.819Z,77.88
2023-03-17T03:52:54.490Z,38.92
2023-03-17T03:53:56.571Z,38.38
2023-03-17T03:55:01.270Z,34.55
2023-03-17T03:56:07.051Z,34.75
2023-03-17T03:57:11.918Z,30.65
2023-03-17T03:58:14.911Z,39.88
2023-03-17T03:59:19.540Z,37.70
2023-03-17T04:00:22.146Z,39.47
2023-03-17T04:01:27.140Z,32.35
2023-03-17T04:02:29.943Z,86.75
2023-03-17T04:03:34.621Z,55.08
2023-03-17T04:04:37.183Z,79.03
2023-03-17T04:05:42.041Z,77.43
2023-03-17T04:06:44.053Z,113.85
2023-03-17T04:07:49.053Z,90.38
2023-03-17T04:08:51.056Z,90.43
2023-03-17T04:09:55.731Z,79.65
2023-03-17T04:10:57.831Z,87.25
2023-03-17T04:12:05.061Z,44.70
2023-03-17T04:13:08.530Z,61.45
2023-03-17T04:14:13.439Z,75.07
2023-03-17T04:15:17.982Z,46.20
2023-03-17T04:16:22.768Z,56.38
2023-03-17T04:17:24.931Z,49.47
2023-03-17T04:18:29.508Z,73.57
2023-03-17T04:19:31.545Z,53.80
2023-03-17T04:20:36.252Z,93.10
2023-03-17T04:21:38.274Z,102.28
2023-03-17T04:22:43.222Z,115.07
2023-03-17T04:23:45.236Z,139.98
2023-03-17T04:24:49.845Z,123.97
2023-03-17T04:25:52.990Z,163.00
2023-03-17T04:26:57.605Z,80.65
2023-03-17T04:28:02.325Z,70.32
2023-03-17T04:29:08.136Z,108.38
2023-03-17T04:30:13.923Z,128.30
2023-03-17T04:31:18.660Z,111.47
2023-03-17T04:32:21.090Z,136.20
2023-03-17T04:33:25.737Z,256.83
2023-03-17T04:34:28.361Z,119.75
2023-03-17T04:35:33.096Z,113.10
2023-03-17T04:36:35.154Z,239.98
2023-03-17T04:37:39.798Z,167.38
2023-03-17T04:38:41.829Z,183.90
2023-03-17T04:39:46.488Z,191.45
2023-03-17T04:40:49.711Z,201.77
2023-03-17T04:41:54.280Z,306.60
2023-03-17T04:42:56.242Z,113.05
2023-03-17T04:44:03.470Z,95.43
2023-03-17T04:45:07.180Z,210.82
2023-03-17T04:46:12.164Z,145.98
2023-03-17T04:47:14.216Z,128.73
2023-03-17T04:48:18.829Z,309.92
2023-03-17T04:49:21.385Z,157.93
2023-03-17T04:50:26.574Z,173.73
2023-03-17T04:51:28.710Z,295.60
2023-03-17T04:52:33.647Z,119.80
2023-03-17T04:53:35.788Z,127.05
2023-03-17T04:54:40.536Z,240.00
2023-03-17T04:55:42.805Z,288.85
2023-03-17T04:56:47.503Z,162.70
2023-03-17T04:57:49.494Z,210.98
2023-03-17T04:58:54.173Z,229.93
2023-03-17T04:59:58.790Z,81.95
2023-03-17T05:01:03.845Z,98.78
2023-03-17T05:02:06.654Z,187.18
2023-03-17T05:03:25.998Z,100.43
2023-03-17T05:04:32.058Z,141.15
2023-03-17T05:05:37.202Z,102.75
2023-03-17T05:06:40.752Z,106.78
2023-03-17T05:07:45.511Z,189.38
2023-03-17T05:08:47.481Z,217.80
2023-03-17T05:09:52.132Z,174.25
2023-03-17T05:10:54.942Z,168.77
2023-03-17T05:11:59.513Z,119.28
2023-03-17T05:13:01.528Z,63.15
2023-03-17T05:14:06.487Z,68.95
2023-03-17T05:15:11.776Z,161.73
2023-03-17T05:16:16.994Z,91.28
2023-03-17T05:17:18.990Z,64.70
2023-03-17T05:18:25.678Z,117.20
2023-03-17T05:19:27.922Z,82.20
2023-03-17T05:20:32.836Z,180.63
2023-03-17T05:21:35.052Z,159.88
2023-03-17T05:22:40.125Z,86.93
2023-03-17T05:23:42.160Z,161.65
2023-03-17T05:24:47.769Z,201.50
2023-03-17T05:25:49.872Z,194.65
2023-03-17T05:26:54.478Z,156.98
2023-03-17T05:27:56.448Z,207.27
2023-03-17T05:29:01.123Z,72.63
2023-03-17T05:30:03.508Z,76.05
2023-03-17T05:31:11.878Z,96.60
2023-03-17T05:32:14.412Z,82.63
2023-03-17T05:33:20.272Z,92.38
2023-03-17T05:34:22.261Z,124.93
2023-03-17T05:35:27.604Z,116.15
2023-03-17T05:36:29.720Z,171.68
2023-03-17T05:37:34.404Z,104.03
2023-03-17T05:38:36.495Z,128.85
2023-03-17T05:39:41.108Z,116.47
2023-03-17T05:40:43.718Z,185.80
2023-03-17T05:41:48.280Z,283.92
2023-03-17T05:42:51.030Z,166.80
2023-03-17T05:43:56.338Z,185.40
2023-03-17T05:44:58.682Z,101.40
2023-03-17T05:46:03.986Z,114.43
2023-03-17T05:47:08.926Z,103.65
2023-03-17T05:48:14.500Z,167.07
2023-03-17T05:49:16.492Z,82.25
2023-03-17T05:50:21.709Z,207.02
2023-03-17T05:51:23.824Z,177.60
2023-03-17T05:52:28.438Z,176.00
2023-03-17T05:53:31.296Z,389.38
2023-03-17T05:54:35.865Z,212.38
2023-03-17T05:55:37.955Z,237.77
2023-03-17T05:56:42.928Z,189.00
2023-03-17T05:57:45.016Z,238.40
2023-03-17T05:58:49.622Z,188.38
2023-03-17T05:59:51.651Z,222.95
2023-03-17T06:00:56.528Z,154.48
2023-03-17T06:01:58.623Z,75.43
2023-03-17T06:03:06.428Z,86.55
2023-03-17T06:04:08.673Z,262.92
2023-03-17T06:05:13.584Z,85.55
2023-03-17T06:06:18.801Z,113.78
2023-03-17T06:07:20.835Z,94.75
2023-03-17T06:08:25.523Z,154.07
2023-03-17T06:09:28.206Z,77.80
2023-03-17T06:10:33.198Z,79.30
2023-03-17T06:11:35.505Z,150.80
2023-03-17T06:12:40.151Z,153.98
2023-03-17T06:13:42.529Z,115.65
2023-03-17T06:14:47.160Z,186.38
2023-03-17T06:15:52.140Z,189.82
2023-03-17T06:16:57.006Z,204.48
2023-03-17T06:18:02.123Z,189.90
2023-03-17T06:19:07.023Z,160.43
2023-03-17T06:20:13.520Z,42.15
2023-03-17T06:21:15.878Z,48.25
2023-03-17T06:22:20.765Z,48.60
2023-03-17T06:23:23.922Z,41.47
2023-03-17T06:24:28.806Z,44.47
2023-03-17T06:25:31.341Z,49.70
2023-03-17T06:26:37.332Z,32.85
2023-03-17T06:27:39.784Z,55.65
2023-03-17T06:28:44.503Z,53.90
2023-03-17T06:29:46.860Z,61.25
2023-03-17T06:30:51.757Z,73.25
2023-03-17T06:31:54.450Z,64.57
2023-03-17T06:32:59.229Z,38.65
2023-03-17T06:34:01.629Z,26.55
2023-03-17T06:35:09.937Z,35.55
2023-03-17T06:36:12.475Z,23.13
2023-03-17T06:37:17.152Z,25.73
2023-03-17T06:38:22.083Z,36.45
2023-03-17T06:39:24.207Z,21.65
2023-03-17T06:40:28.994Z,29.67
2023-03-17T06:41:30.980Z,30.02
2023-03-17T06:42:35.644Z,29.92
2023-03-17T06:43:37.660Z,23.63
2023-03-17T06:44:42.457Z,25.58
2023-03-17T06:45:47.013Z,43.20
2023-03-17T06:46:49.564Z,49.88
2023-03-17T06:47:54.178Z,59.60
2023-03-17T06:48:56.145Z,43.80
2023-03-17T06:50:00.917Z,80.88
2023-03-17T06:51:05.955Z,32.95
2023-03-17T06:52:11.767Z,27.75
2023-03-17T06:53:16.584Z,24.70
2023-03-17T06:54:19.336Z,22.48
2023-03-17T06:55:24.134Z,28.10
2023-03-17T06:56:30.338Z,26.58
2023-03-17T06:57:35.922Z,28.25
2023-03-17T06:58:38.050Z,29.27
2023-03-17T06:59:42.729Z,24.52
2023-03-17T07:00:49.017Z,28.67
2023-03-17T07:01:53.717Z,48.45
2023-03-17T07:02:55.912Z,42.47
2023-03-17T07:04:01.145Z,46.88
2023-03-17T07:05:04.678Z,28.10
2023-03-17T07:06:12.173Z,81.75
2023-03-17T07:07:14.181Z,24.45
2023-03-17T07:08:18.733Z,28.35
2023-03-17T07:09:20.976Z,30.08
2023-03-17T07:10:26.254Z,22.70
2023-03-17T07:11:29.353Z,32.13
2023-03-17T07:12:34.394Z,34.00
2023-03-17T07:13:39.370Z,34.05
2023-03-17T07:14:41.873Z,36.38
2023-03-17T07:15:48.402Z,61.90
2023-03-17T07:16:50.554Z,57.33
2023-03-17T07:17:55.181Z,62.80
2023-03-17T07:18:57.168Z,141.77
2023-03-17T07:20:01.836Z,63.70
2023-03-17T07:21:04.036Z,43.78
2023-03-17T07:22:12.953Z,79.82
2023-03-17T07:23:16.449Z,38.05
2023-03-17T07:24:21.036Z,29.88
2023-03-17T07:25:25.802Z,33.20
2023-03-17T07:26:27.847Z,36.33
2023-03-17T07:27:32.488Z,52.97
2023-03-17T07:28:34.600Z,29.77
2023-03-17T07:29:39.207Z,27.05
2023-03-17T07:30:46.964Z,118.43
2023-03-17T07:31:49.558Z,41.88
2023-03-17T07:32:54.228Z,56.50
2023-03-17T07:33:59.622Z,72.97
2023-03-17T07:35:01.696Z,51.58
2023-03-17T07:36:07.416Z,32.08
2023-03-17T07:37:15.440Z,44.83
2023-03-17T07:38:19.167Z,27.02
2023-03-17T07:39:23.862Z,28.17
2023-03-17T07:40:26.839Z,54.42
2023-03-17T07:41:31.485Z,24.45
2023-03-17T07:42:34.106Z,28.77
2023-03-17T07:43:39.621Z,25.95
2023-03-17T07:44:41.975Z,25.63
2023-03-17T07:45:47.166Z,30.05
2023-03-17T07:46:49.328Z,55.47
2023-03-17T07:47:54.103Z,74.13
2023-03-17T07:48:56.939Z,51.78
2023-03-17T07:50:01.560Z,120.95
2023-03-17T07:51:07.497Z,77.05
2023-03-17T07:52:12.794Z,32.50
2023-03-17T07:53:17.677Z,35.75
2023-03-17T07:54:22.394Z,42.22
2023-03-17T07:55:27.117Z,40.78
2023-03-17T07:56:30.080Z,50.92
2023-03-17T07:57:34.722Z,45.35
2023-03-17T07:58:37.143Z,75.15
2023-03-17T07:59:42.482Z,91.72
2023-03-17T08:00:47.252Z,36.08
2023-03-17T08:01:49.478Z,62.30
2023-03-17T08:03:08.960Z,491.25
2023-03-17T08:04:13.490Z,52.45
2023-03-17T08:05:18.116Z,61.28
2023-03-17T08:06:21.688Z,86.05
2023-03-17T08:07:29.028Z,42.55
2023-03-17T08:08:31.013Z,48.90
2023-03-17T08:09:35.860Z,44.65
2023-03-17T08:10:37.880Z,44.97
2023-03-17T08:11:42.864Z,54.03
2023-03-17T08:12:44.913Z,49.30
2023-03-17T08:13:50.007Z,48.38
2023-03-17T08:14:52.027Z,84.95
2023-03-17T08:15:57.064Z,92.70
2023-03-17T08:17:01.740Z,76.50
2023-03-17T08:18:07.054Z,79.30
2023-03-17T08:19:11.893Z,47.92
2023-03-17T08:20:14.402Z,32.90
2023-03-17T08:21:19.208Z,43.72
2023-03-17T08:22:23.846Z,21.98
2023-03-17T08:23:28.468Z,27.08
2023-03-17T08:24:33.115Z,65.80
2023-03-17T08:25:37.791Z,32.30
2023-03-17T08:26:39.862Z,33.50
2023-03-17T08:27:44.489Z,60.38
2023-03-17T08:28:47.028Z,75.03
2023-03-17T08:29:51.964Z,34.35
2023-03-17T08:30:57.912Z,98.57
2023-03-17T08:32:02.561Z,66.18
2023-03-17T08:33:04.733Z,61.05
2023-03-17T08:34:10.183Z,77.57
2023-03-17T08:35:12.868Z,58.60
2023-03-17T08:36:17.687Z,26.83
2023-03-17T08:37:19.778Z,30.20
2023-03-17T08:38:24.430Z,73.57
2023-03-17T08:39:29.980Z,33.50
2023-03-17T08:40:34.971Z,27.77
2023-03-17T08:41:38.579Z,39.08
2023-03-17T08:42:43.227Z,45.83
2023-03-17T08:43:47.204Z,24.20
2023-03-17T08:44:52.057Z,136.02
2023-03-17T08:46:01.763Z,111.53
2023-03-17T08:47:06.858Z,130.15
2023-03-17T08:48:09.690Z,81.40
2023-03-17T08:49:15.219Z,48.70
2023-03-17T08:50:20.077Z,56.92
2023-03-17T08:51:25.691Z,92.68
2023-03-17T08:52:30.393Z,42.60
2023-03-17T08:53:32.807Z,99.97
2023-03-17T08:54:40.192Z,91.18
2023-03-17T08:55:42.408Z,120.80
2023-03-17T08:56:47.045Z,108.22
2023-03-17T08:57:49.564Z,206.82
2023-03-17T08:58:54.798Z,166.65
2023-03-17T08:59:57.039Z,171.63
2023-03-17T09:01:02.993Z,142.57
2023-03-17T09:02:08.800Z,167.77
2023-03-17T09:03:10.885Z,118.97
2023-03-17T09:04:15.547Z,230.07
2023-03-17T09:05:18.643Z,112.28
2023-03-17T09:06:23.557Z,108.05
2023-03-17T09:07:28.206Z,118.10
2023-03-17T09:08:30.390Z,111.20
2023-03-17T09:09:36.638Z,87.82
2023-03-17T09:10:44.476Z,88.85
2023-03-17T09:11:46.647Z,123.22
2023-03-17T09:12:51.766Z,91.53
2023-03-17T09:13:54.511Z,104.50
2023-03-17T09:14:59.624Z,218.45
2023-03-17T09:16:02.774Z,120.40
2023-03-17T09:17:08.569Z,141.60
2023-03-17T09:18:10.837Z,179.27
2023-03-17T09:19:15.399Z,60.95
2023-03-17T09:20:17.480Z,101.30
2023-03-17T09:21:23.738Z,119.80
2023-03-17T09:22:25.709Z,300.58
2023-03-17T09:23:30.435Z,999.10
2023-03-17T09:24:32.636Z,938.83
2023-03-17T09:25:37.676Z,990.97
2023-03-17T09:26:44.874Z,956.38
2023-03-17T09:27:49.654Z,958.58
2023-03-17T09:28:51.720Z,1003.85
2023-03-17T09:29:56.407Z,874.50
2023-03-17T09:30:59.285Z,943.90
2023-03-17T09:32:04.131Z,979.60
2023-03-17T09:33:06.567Z,915.40
2023-03-17T09:34:11.281Z,944.45
2023-03-17T09:35:13.616Z,1001.15
2023-03-17T09:36:18.283Z,661.30
2023-03-17T09:37:20.301Z,541.05
2023-03-17T09:38:25.262Z,442.60
2023-03-17T09:39:27.652Z,274.33
2023-03-17T09:40:35.938Z,336.20
2023-03-17T09:42:11.026Z,592.33
2023-03-17T09:43:27.247Z,678.75
2023-03-17T09:44:42.922Z,970.42
2023-03-17T09:45:48.117Z,1064.60
2023-03-17T09:46:59.611Z,909.88
2023-03-17T09:48:25.368Z,927.28
2023-03-17T09:49:36.485Z,915.83
2023-03-17T09:50:47.885Z,949.53
2023-03-17T09:51:53.359Z,935.72
2023-03-17T09:52:58.539Z,968.20
2023-03-17T09:54:05.979Z,1137.85
2023-03-17T09:55:13.260Z,1001.03
2023-03-17T09:56:20.344Z,984.88
2023-03-17T09:57:32.289Z,989.03
2023-03-17T09:58:40.390Z,981.42
2023-03-17T09:59:44.234Z,620.65
2023-03-17T10:00:48.815Z,585.47
2023-03-17T10:01:50.885Z,827.38
2023-03-17T10:02:55.819Z,1033.28
2023-03-17T10:04:00.508Z,1036.25
2023-03-17T10:05:20.758Z,1156.97
2023-03-17T10:06:37.870Z,933.15
2023-03-17T10:07:45.007Z,98.60
2023-03-17T10:08:57.784Z,92.85
2023-03-17T10:10:05.311Z,223.60
2023-03-17T10:11:19.005Z,149.88
2023-03-17T10:12:36.248Z,129.15
2023-03-17T10:13:55.316Z,118.82
2023-03-17T10:15:01.681Z,85.25
2023-03-17T10:16:10.399Z,111.95
2023-03-17T10:17:17.611Z,166.10
2023-03-17T10:18:27.698Z,66.20
2023-03-17T10:19:32.873Z,83.20
2023-03-17T10:20:44.880Z,193.88
2023-03-17T10:21:54.425Z,68.05
2023-03-17T10:22:58.344Z,92.13
2023-03-17T10:24:03.770Z,143.43
2023-03-17T10:25:12.971Z,120.07
2023-03-17T10:26:29.218Z,67.60
2023-03-17T10:27:37.485Z,56.03
2023-03-17T10:28:42.567Z,115.78
2023-03-17T10:29:46.510Z,57.42
2023-03-17T10:30:53.084Z,55.70
2023-03-17T10:31:58.580Z,95.45
2023-03-17T10:33:07.240Z,106.13
2023-03-17T10:34:14.380Z,122.95
2023-03-17T10:35:20.366Z,70.38
2023-03-17T10:36:35.550Z,84.45
2023-03-17T10:37:43.352Z,91.15
2023-03-17T10:38:52.431Z,112.05
2023-03-17T10:39:59.958Z,94.95
2023-03-17T10:41:10.382Z,168.95
2023-03-17T10:42:21.904Z,171.45
2023-03-17T10:43:29.573Z,81.47
2023-03-17T10:44:46.854Z,40.55
2023-03-17T10:45:58.876Z,81.22
2023-03-17T10:47:03.816Z,156.55
2023-03-17T10:48:12.389Z,216.63
2023-03-17T10:49:18.359Z,184.38
2023-03-17T10:50:26.197Z,111.15
2023-03-17T10:51:35.643Z,97.40
2023-03-17T10:52:39.847Z,61.25
2023-03-17T10:53:45.694Z,55.45
2023-03-17T10:54:48.584Z,91.82
2023-03-17T10:55:55.633Z,98.47
2023-03-17T10:57:02.143Z,49.83
2023-03-17T10:58:09.761Z,249.85
2023-03-17T10:59:19.586Z,115.70
2023-03-17T11:00:26.429Z,64.68
2023-03-17T11:01:30.552Z,67.15
2023-03-17T11:02:46.703Z,61.63
2023-03-17T11:03:49.474Z,99.85
2023-03-17T11:04:58.475Z,97.22
2023-03-17T11:06:04.028Z,109.85
2023-03-17T11:07:12.905Z,123.82
2023-03-17T11:08:18.662Z,137.38
2023-03-17T11:09:23.947Z,91.97
2023-03-17T11:10:28.018Z,59.47
2023-03-17T11:11:34.823Z,62.80
2023-03-17T11:12:40.245Z,127.75
2023-03-17T11:13:44.907Z,64.97
2023-03-17T11:14:50.578Z,51.28
2023-03-17T11:16:01.023Z,82.80
2023-03-17T11:17:09.260Z,210.77
2023-03-17T11:18:21.752Z,190.43
2023-03-17T11:19:34.415Z,66.50
2023-03-17T11:20:50.645Z,112.70
2023-03-17T11:22:00.192Z,62.25
2023-03-17T11:23:11.543Z,198.40
2023-03-17T11:24:17.824Z,108.05
2023-03-17T11:25:23.704Z,60.92
2023-03-17T11:26:44.252Z,77.90
2023-03-17T11:27:52.259Z,239.30
2023-03-17T11:29:07.342Z,83.07
2023-03-17T11:30:32.501Z,149.50
2023-03-17T11:31:42.581Z,103.60
2023-03-17T11:32:52.143Z,87.20
2023-03-17T11:34:05.447Z,69.63
2023-03-17T11:35:31.797Z,118.60
2023-03-17T11:36:47.786Z,189.30
2023-03-17T11:38:13.371Z,317.63
2023-03-17T11:39:23.420Z,105.47
2023-03-17T11:40:32.607Z,92.30
2023-03-17T11:42:03.769Z,75.32
2023-03-17T11:43:20.464Z,111.45
2023-03-17T11:44:58.422Z,62.25
2023-03-17T11:46:12.260Z,70.90
2023-03-17T11:47:27.954Z,89.40
2023-03-17T11:48:39.308Z,57.67
2023-03-17T11:49:41.427Z,36.92
2023-03-17T11:50:55.193Z,45.17
2023-03-17T11:52:08.274Z,54.03
2023-03-17T11:53:33.377Z,111.28
2023-03-17T11:54:49.070Z,76.32
2023-03-17T11:55:58.001Z,82.22
2023-03-17T11:57:06.113Z,57.35
2023-03-17T11:58:15.480Z,76.13
2023-03-17T11:59:29.070Z,90.10
2023-03-17T12:00:37.507Z,59.08
2023-03-17T12:01:51.310Z,82.43
2023-03-17T12:03:01.195Z,75.22
2023-03-17T12:04:13.149Z,58.60
2023-03-17T12:05:23.159Z,114.38
2023-03-17T12:06:32.768Z,45.10
2023-03-17T12:07:42.204Z,78.15
2023-03-17T12:08:49.056Z,41.40
2023-03-17T12:10:01.148Z,43.95
2023-03-17T12:11:10.708Z,63.80
2023-03-17T12:12:20.113Z,101.57
2023-03-17T12:13:29.820Z,163.07
2023-03-17T12:14:38.397Z,73.45
2023-03-17T12:15:46.777Z,129.43
2023-03-17T12:16:57.881Z,41.08
2023-03-17T12:18:08.674Z,51.65
2023-03-17T12:19:19.519Z,102.20
2023-03-17T12:20:34.887Z,50.08
2023-03-17T12:21:44.830Z,79.60
2023-03-17T12:22:55.905Z,59.65
2023-03-17T12:24:05.605Z,63.53
2023-03-17T12:25:13.624Z,129.70
2023-03-17T12:26:21.232Z,115.93
2023-03-17T12:27:27.420Z,112.95
2023-03-17T12:28:38.210Z,79.00
2023-03-17T12:29:43.776Z,62.35
2023-03-17T12:30:52.658Z,49.10
2023-03-17T12:32:08.381Z,53.63
2023-03-17T12:33:23.810Z,101.43
2023-03-17T12:34:35.164Z,71.18
2023-03-17T12:35:38.909Z,49.13
2023-03-17T12:36:44.133Z,48.47
2023-03-17T12:37:46.770Z,55.05
2023-03-17T12:38:57.193Z,54.70
2023-03-17T12:40:09.511Z,67.07
2023-03-17T12:41:37.056Z,132.18
2023-03-17T12:42:52.364Z,75.00
2023-03-17T12:44:05.710Z,53.53
2023-03-17T12:45:39.265Z,82.55
2023-03-17T12:47:04.633Z,59.05
2023-03-17T12:48:22.045Z,90.75
2023-03-17T12:49:42.304Z,74.50
2023-03-17T12:51:06.753Z,35.88
2023-03-17T12:52:23.863Z,98.32
2023-03-17T12:53:29.561Z,54.17
2023-03-17T12:54:37.322Z,64.05
2023-03-17T12:55:39.668Z,49.42
2023-03-17T12:56:49.290Z,78.18
2023-03-17T12:58:00.500Z,83.00
2023-03-17T12:59:08.763Z,39.10
2023-03-17T13:00:28.392Z,73.43
2023-03-17T13:01:32.803Z,48.53
2023-03-17T13:02:41.022Z,55.33
2023-03-17T13:03:58.833Z,74.40
2023-03-17T13:05:09.260Z,47.58
2023-03-17T13:06:20.080Z,101.82
2023-03-17T13:07:27.895Z,34.97
2023-03-17T13:08:32.336Z,24.52
2023-03-17T13:09:50.780Z,50.25
2023-03-17T13:11:24.784Z,93.35
2023-03-17T13:12:59.619Z,172.50
2023-03-17T13:14:18.558Z,92.65
2023-03-17T13:15:30.636Z,132.30
2023-03-17T13:16:37.039Z,110.88
2023-03-17T13:17:39.074Z,61.67
2023-03-17T13:18:53.352Z,64.90
2023-03-17T13:20:00.245Z,57.92
2023-03-17T13:21:13.848Z,29.27
2023-03-17T13:22:37.176Z,187.02
2023-03-17T13:23:42.873Z,104.50
2023-03-17T13:24:51.264Z,62.25
2023-03-17T13:25:54.812Z,149.70
2023-03-17T13:27:04.814Z,96.45
2023-03-17T13:28:28.687Z,62.97
2023-03-17T13:29:49.485Z,66.93
2023-03-17T13:31:09.308Z,65.55
2023-03-17T13:32:33.515Z,120.03
2023-03-17T13:33:43.931Z,78.28
2023-03-17T13:34:48.556Z,50.70
2023-03-17T13:36:22.835Z,39.17
2023-03-17T13:37:33.435Z,70.95
2023-03-17T13:39:15.105Z,62.78
2023-03-17T13:40:24.213Z,112.70
2023-03-17T13:41:50.598Z,126.57
2023-03-17T13:43:11.193Z,50.15
2023-03-17T13:44:38.659Z,112.55
2023-03-17T13:45:41.972Z,92.38
2023-03-17T13:46:49.439Z,111.55
2023-03-17T13:47:52.717Z,181.48
2023-03-17T13:48:59.170Z,170.82
2023-03-17T13:50:07.669Z,76.88
2023-03-17T13:51:22.173Z,195.05
2023-03-17T13:52:30.523Z,171.50
2023-03-17T13:53:40.338Z,170.35
2023-03-17T13:54:51.568Z,79.32
2023-03-17T13:56:14.661Z,146.23
2023-03-17T13:57:28.921Z,190.25
2023-03-17T13:58:54.187Z,101.20
2023-03-17T14:00:06.772Z,131.38
2023-03-17T14:01:16.470Z,210.88
2023-03-17T14:02:21.065Z,195.15
2023-03-17T14:03:33.606Z,187.40
2023-03-17T14:04:48.607Z,262.17
2023-03-17T14:05:54.662Z,72.45
2023-03-17T14:07:08.051Z,89.25
2023-03-17T14:08:16.648Z,121.88
2023-03-17T14:09:35.728Z,162.93
2023-03-17T14:10:37.802Z,73.60